Tzoanna Vi — SYHY — position and weather

sailwx.info

Track history (hours):
 
Tides and Currents Weather Stations Pressure Air Temp Water Temp Dewpoint Dewpoint Depression Visibility Wind Speed Wind Dir Waves Ship Positions

Tzoanna Vi

Last reported at 2017-Sep-22 02:01 UTC. Time now 2017-Sep-23 18:34 UTC.
Position N 38°02' E 023°31'.

Length 84 m; draft 5.2 m.

Type: Cargo ship. MMSI: 237991700.

Date/timePositionNaut miles runAvg speedWind from/ knotsBaromVisibWave heightAir tempDewpointWater temp
2017-Sep-22 02:01N 38°02' E 023°31'0 0.0
2017-Sep-22 01:31N 38°02' E 023°31'0 0.0
2017-Sep-22 01:01N 38°02' E 023°31'0 0.0
2017-Sep-22 00:31N 38°02' E 023°31'0 0.0
2017-Sep-22 00:01N 38°02' E 023°31'0 0.0
2017-Sep-21 23:31N 38°02' E 023°31'0 0.0
2017-Sep-21 23:01N 38°02' E 023°31'0 0.0
2017-Sep-21 22:31N 38°02' E 023°31'0 0.0
2017-Sep-21 22:01N 38°02' E 023°31'0 0.0
2017-Sep-21 21:31N 38°02' E 023°31'0 0.0
2017-Sep-21 21:01N 38°02' E 023°31'0 0.0
2017-Sep-21 20:31N 38°02' E 023°31'0 0.0
2017-Sep-21 20:00N 38°02' E 023°31'0 0.0
2017-Sep-21 19:31N 38°02' E 023°31'0 0.0
2017-Sep-21 19:01N 38°02' E 023°31'0 0.0
2017-Sep-21 18:31N 38°02' E 023°31'0 0.0
2017-Sep-21 18:00N 38°02' E 023°31'0 0.0
2017-Sep-21 17:31N 38°02' E 023°31'0 0.0
2017-Sep-21 17:01N 38°02' E 023°31'0 0.0
2017-Sep-21 16:31N 38°02' E 023°31'0 0.0
2017-Sep-21 16:01N 38°02' E 023°31'0 0.0
2017-Sep-21 15:31N 38°02' E 023°31'0 0.0
2017-Sep-21 15:00N 38°02' E 023°31'0 0.0
2017-Sep-21 14:31N 38°02' E 023°31'0 0.0
2017-Sep-21 14:01N 38°02' E 023°31'0 0.0
2017-Sep-21 13:31N 38°02' E 023°31'0 0.0
2017-Sep-21 13:00N 38°02' E 023°31'0 0.0
2017-Sep-21 12:31N 38°02' E 023°31'0 0.0
2017-Sep-21 12:01N 38°02' E 023°31'0 0.0
2017-Sep-21 11:30N 38°02' E 023°31'0 0.0
2017-Sep-21 11:01N 38°02' E 023°31'0 0.0
2017-Sep-21 10:31N 38°02' E 023°31'0 0.0
2017-Sep-21 10:01N 38°02' E 023°31'0 0.0
2017-Sep-21 09:31N 38°02' E 023°31'0 0.0
2017-Sep-21 09:01N 38°02' E 023°31'0 0.0
2017-Sep-21 08:30N 38°02' E 023°31'0 0.0
2017-Sep-21 08:00N 38°02' E 023°31'0 0.0
2017-Sep-21 07:30N 38°02' E 023°31'0 0.0
2017-Sep-21 07:00N 38°02' E 023°31'0 0.0
2017-Sep-21 06:31N 38°02' E 023°31'0 0.0
2017-Sep-21 06:00N 38°02' E 023°31'1 1.6
2017-Sep-21 05:31N 38°02' E 023°31'2 4.9
2017-Sep-21 05:00N 37°60' E 023°33'3 6.2
2017-Sep-21 04:31N 37°57' E 023°35'3 6.1
2017-Sep-21 04:01N 37°54' E 023°37'3 6.8
2017-Sep-21 03:31N 37°51' E 023°39'3 6.7
2017-Sep-21 03:01N 37°48' E 023°41'3 6.7
2017-Sep-21 02:30N 37°45' E 023°43'3 6.7
2017-Sep-21 02:00N 37°42' E 023°45'3 6.5
2017-Sep-21 01:31N 37°39' E 023°46'108 6.7
2017-Sep-20 09:22N 35°54' E 024°20'3 7.9
2017-Sep-20 09:01N 35°52' E 024°21'4 8.1
2017-Sep-20 08:31N 35°48' E 024°22'4 8.4
2017-Sep-20 08:01N 35°44' E 024°23'4 8.6
2017-Sep-20 07:31N 35°39' E 024°24'4 8.7
2017-Sep-20 07:01N 35°35' E 024°25'4 8.5
2017-Sep-20 06:30N 35°31' E 024°27'4 8.1
2017-Sep-20 06:01N 35°27' E 024°28'4 8.0
2017-Sep-20 05:30N 35°23' E 024°29'1 1.9
2017-Sep-20 04:59N 35°22' E 024°29'0 0.0
2017-Sep-20 04:29N 35°22' E 024°29'0 0.0
2017-Sep-20 03:59N 35°22' E 024°29'0 0.0
2017-Sep-20 03:29N 35°22' E 024°29'0 0.0
2017-Sep-20 02:59N 35°22' E 024°29'0 0.0
2017-Sep-20 02:29N 35°22' E 024°29'0 0.0
2017-Sep-20 01:59N 35°22' E 024°29'0 0.0
2017-Sep-20 01:29N 35°22' E 024°29'0 0.0
2017-Sep-20 00:59N 35°22' E 024°29'0 0.0
2017-Sep-20 00:29N 35°22' E 024°29'0 0.0
2017-Sep-19 23:59N 35°22' E 024°29'0 0.0
2017-Sep-19 23:29N 35°22' E 024°29'0 0.0
2017-Sep-19 22:59N 35°22' E 024°29'0 0.0
2017-Sep-19 22:29N 35°22' E 024°29'0 0.0
2017-Sep-19 21:59N 35°22' E 024°29'0 0.0
2017-Sep-19 21:29N 35°22' E 024°29'0 0.0
2017-Sep-19 20:56N 35°22' E 024°29'0 0.0
2017-Sep-19 20:29N 35°22' E 024°29'0 0.0
2017-Sep-19 19:59N 35°22' E 024°29'0 0.0
2017-Sep-19 19:29N 35°22' E 024°29'0 0.0
2017-Sep-19 18:59N 35°22' E 024°29'0 0.0
2017-Sep-19 18:29N 35°22' E 024°29'0 0.0
2017-Sep-19 17:59N 35°22' E 024°29'0 0.0
2017-Sep-19 17:29N 35°22' E 024°29'0 0.0
2017-Sep-19 16:59N 35°22' E 024°29'0 0.0
2017-Sep-19 16:29N 35°22' E 024°29'0 0.0
2017-Sep-19 15:59N 35°22' E 024°29'0 0.0
2017-Sep-19 15:29N 35°22' E 024°29'0 0.0
2017-Sep-19 14:59N 35°22' E 024°29'0 0.0
2017-Sep-19 14:29N 35°22' E 024°29'0 0.5
2017-Sep-19 13:59N 35°22' E 024°29'0 0.0
2017-Sep-19 13:29N 35°22' E 024°29'0 0.0
2017-Sep-19 12:59N 35°22' E 024°29'0 0.0
2017-Sep-19 12:29N 35°22' E 024°29'0 0.0
2017-Sep-19 11:59N 35°22' E 024°29'0 0.0
2017-Sep-19 11:23N 35°22' E 024°29'0 0.0
2017-Sep-19 10:59N 35°22' E 024°29'0 0.0
2017-Sep-19 10:26N 35°22' E 024°29'0 0.0
2017-Sep-19 09:59N 35°22' E 024°29'0 0.0
2017-Sep-19 09:29N 35°22' E 024°29'0 0.0
2017-Sep-19 08:56N 35°22' E 024°29'0 0.0
2017-Sep-19 08:29N 35°22' E 024°29'0 0.0
2017-Sep-19 07:59N 35°22' E 024°29'0 0.0
2017-Sep-19 07:29N 35°22' E 024°29'0 0.0
2017-Sep-19 06:59N 35°22' E 024°29'0 0.0
2017-Sep-19 06:29N 35°22' E 024°29'0 0.0
2017-Sep-19 05:59N 35°22' E 024°29'0 0.0
2017-Sep-19 05:29N 35°22' E 024°29'0 0.0
2017-Sep-19 04:59N 35°22' E 024°29'0 0.0
2017-Sep-19 04:29N 35°22' E 024°29'0 0.0
2017-Sep-19 03:59N 35°22' E 024°29'0 0.0
2017-Sep-19 03:29N 35°22' E 024°29'0 0.0
2017-Sep-19 02:59N 35°22' E 024°29'0 0.0
2017-Sep-19 02:29N 35°22' E 024°29'0 0.0
2017-Sep-19 01:59N 35°22' E 024°29'0 0.0
2017-Sep-19 01:29N 35°22' E 024°29'0 0.0
2017-Sep-19 00:56N 35°22' E 024°29'0 0.0
2017-Sep-19 00:29N 35°22' E 024°29'0 0.0
2017-Sep-18 23:59N 35°22' E 024°29'0 0.0
2017-Sep-18 23:29N 35°22' E 024°29'0 0.0
2017-Sep-18 22:59N 35°22' E 024°29'0 0.0
2017-Sep-18 22:29N 35°22' E 024°29'0 0.0
2017-Sep-18 21:59N 35°22' E 024°29'0 0.0
2017-Sep-18 21:29N 35°22' E 024°29'0 0.0
2017-Sep-18 20:59N 35°22' E 024°29'0 0.0
2017-Sep-18 20:29N 35°22' E 024°29'0 0.0
2017-Sep-18 19:59N 35°22' E 024°29'0 0.0
2017-Sep-18 19:29N 35°22' E 024°29'0 0.0
2017-Sep-18 18:59N 35°22' E 024°29'0 0.0
2017-Sep-18 18:29N 35°22' E 024°29'0 0.0
2017-Sep-18 17:59N 35°22' E 024°29'0 0.0
2017-Sep-18 17:29N 35°22' E 024°29'0 0.0
2017-Sep-18 16:59N 35°22' E 024°29'0 0.0
2017-Sep-18 16:29N 35°22' E 024°29'0 0.0
2017-Sep-18 15:59N 35°22' E 024°29'0 0.0
2017-Sep-18 15:29N 35°22' E 024°29'0 0.0
2017-Sep-18 14:59N 35°22' E 024°29'0 0.0
2017-Sep-18 14:29N 35°22' E 024°29'0 0.0
2017-Sep-18 13:59N 35°22' E 024°29'0 0.0
2017-Sep-18 13:29N 35°22' E 024°29'0 0.0
2017-Sep-18 12:59N 35°22' E 024°29'0 0.0
2017-Sep-18 12:29N 35°22' E 024°29'0 0.0
2017-Sep-18 11:59N 35°22' E 024°29'0 0.0
2017-Sep-18 11:29N 35°22' E 024°29'0 0.0
2017-Sep-18 10:59N 35°22' E 024°29'0 0.0
2017-Sep-18 10:29N 35°22' E 024°29'0 0.0
2017-Sep-18 09:59N 35°22' E 024°29'0 0.0
2017-Sep-18 09:29N 35°22' E 024°29'0 0.0
2017-Sep-18 08:59N 35°22' E 024°29'0 0.0
2017-Sep-18 08:29N 35°22' E 024°29'0 0.0
2017-Sep-18 08:01N 35°22' E 024°29'0 0.0
2017-Sep-18 07:31N 35°22' E 024°29'0 0.0
2017-Sep-18 07:01N 35°22' E 024°29'0 0.0
2017-Sep-18 06:31N 35°22' E 024°29'0 0.0
2017-Sep-18 06:01N 35°22' E 024°29'0 0.0
2017-Sep-18 05:31N 35°22' E 024°29'0 0.0
2017-Sep-18 05:01N 35°22' E 024°29'0 0.0
2017-Sep-18 04:30N 35°22' E 024°29'0 0.0
2017-Sep-18 04:01N 35°22' E 024°29'1 1.7
2017-Sep-18 03:31N 35°23' E 024°29'3 5.8
2017-Sep-18 03:01N 35°26' E 024°30'4 7.8
2017-Sep-18 02:28N 35°30' E 024°30'6 7.0
2017-Sep-18 01:38N 35°36' E 024°32'1 6.8
2017-Sep-18 01:30N 35°37' E 024°32'168 7.7
2017-Sep-17 03:43N 38°24' E 024°25'  
2017-Sep-13 05:22N 39°39' E 024°05'5 8.7
2017-Sep-13 04:48N 39°42' E 024°10'3 8.6
2017-Sep-13 04:30N 39°43' E 024°13'4 8.5
2017-Sep-13 04:00N 39°46' E 024°17'22 8.5
2017-Sep-13 01:28N 39°60' E 024°39'4 8.2
2017-Sep-13 01:00N 40°03' E 024°42'5 7.9
2017-Sep-13 00:24N 40°06' E 024°47'4 7.8
2017-Sep-12 23:52N 40°08' E 024°51'3 7.8
2017-Sep-12 23:28N 40°10' E 024°54'4 7.9
2017-Sep-12 23:00N 40°12' E 024°58'4 7.9
2017-Sep-12 22:30N 40°15' E 025°02'4 8.0
2017-Sep-12 22:00N 40°18' E 025°06'4 8.1
2017-Sep-12 21:30N 40°20' E 025°10'4 7.8
2017-Sep-12 21:00N 40°23' E 025°14'4 8.1
2017-Sep-12 20:30N 40°26' E 025°17'5 8.9
2017-Sep-12 20:00N 40°29' E 025°22'4 8.5
2017-Sep-12 19:30N 40°31' E 025°26'4 8.0
2017-Sep-12 19:00N 40°34' E 025°31'4 7.4
2017-Sep-12 18:30N 40°36' E 025°34'4 7.3
2017-Sep-12 18:00N 40°38' E 025°38'4 7.2
2017-Sep-12 17:30N 40°41' E 025°41'4 7.2
2017-Sep-12 17:00N 40°43' E 025°45'4 7.4
2017-Sep-12 16:30N 40°46' E 025°49'5 8.3
2017-Sep-12 15:54N 40°49' E 025°54'  
Track history (hours):
 
Tides and Currents Weather Stations Pressure Air Temp Water Temp Dewpoint Dewpoint Depression Visibility Wind Speed Wind Dir Waves Ship Positions

Tzoanna Vi

Last reported at 2017-Sep-22 02:01 UTC. Time now 2017-Sep-23 18:34 UTC.
Position N 38°02' E 023°31'.

Length 84 m; draft 5.2 m.

Type: Cargo ship. MMSI: 237991700.

Date/timePositionNaut miles runAvg speedWind from/ knotsBaromVisibWave heightAir tempDewpointWater temp
2017-Sep-22 02:01N 38°02' E 023°31'0 0.0
2017-Sep-22 01:31N 38°02' E 023°31'0 0.0
2017-Sep-22 01:01N 38°02' E 023°31'0 0.0
2017-Sep-22 00:31N 38°02' E 023°31'0 0.0
2017-Sep-22 00:01N 38°02' E 023°31'0 0.0
2017-Sep-21 23:31N 38°02' E 023°31'0 0.0
2017-Sep-21 23:01N 38°02' E 023°31'0 0.0
2017-Sep-21 22:31N 38°02' E 023°31'0 0.0
2017-Sep-21 22:01N 38°02' E 023°31'0 0.0
2017-Sep-21 21:31N 38°02' E 023°31'0 0.0
2017-Sep-21 21:01N 38°02' E 023°31'0 0.0
2017-Sep-21 20:31N 38°02' E 023°31'0 0.0
2017-Sep-21 20:00N 38°02' E 023°31'0 0.0
2017-Sep-21 19:31N 38°02' E 023°31'0 0.0
2017-Sep-21 19:01N 38°02' E 023°31'0 0.0
2017-Sep-21 18:31N 38°02' E 023°31'0 0.0
2017-Sep-21 18:00N 38°02' E 023°31'0 0.0
2017-Sep-21 17:31N 38°02' E 023°31'0 0.0
2017-Sep-21 17:01N 38°02' E 023°31'0 0.0
2017-Sep-21 16:31N 38°02' E 023°31'0 0.0
2017-Sep-21 16:01N 38°02' E 023°31'0 0.0
2017-Sep-21 15:31N 38°02' E 023°31'0 0.0
2017-Sep-21 15:00N 38°02' E 023°31'0 0.0
2017-Sep-21 14:31N 38°02' E 023°31'0 0.0
2017-Sep-21 14:01N 38°02' E 023°31'0 0.0
2017-Sep-21 13:31N 38°02' E 023°31'0 0.0
2017-Sep-21 13:00N 38°02' E 023°31'0 0.0
2017-Sep-21 12:31N 38°02' E 023°31'0 0.0
2017-Sep-21 12:01N 38°02' E 023°31'0 0.0
2017-Sep-21 11:30N 38°02' E 023°31'0 0.0
2017-Sep-21 11:01N 38°02' E 023°31'0 0.0
2017-Sep-21 10:31N 38°02' E 023°31'0 0.0
2017-Sep-21 10:01N 38°02' E 023°31'0 0.0
2017-Sep-21 09:31N 38°02' E 023°31'0 0.0
2017-Sep-21 09:01N 38°02' E 023°31'0 0.0
2017-Sep-21 08:30N 38°02' E 023°31'0 0.0
2017-Sep-21 08:00N 38°02' E 023°31'0 0.0
2017-Sep-21 07:30N 38°02' E 023°31'0 0.0
2017-Sep-21 07:00N 38°02' E 023°31'0 0.0
2017-Sep-21 06:31N 38°02' E 023°31'0 0.0
2017-Sep-21 06:00N 38°02' E 023°31'1 1.6
2017-Sep-21 05:31N 38°02' E 023°31'2 4.9
2017-Sep-21 05:00N 37°60' E 023°33'3 6.2
2017-Sep-21 04:31N 37°57' E 023°35'3 6.1
2017-Sep-21 04:01N 37°54' E 023°37'3 6.8
2017-Sep-21 03:31N 37°51' E 023°39'3 6.7
2017-Sep-21 03:01N 37°48' E 023°41'3 6.7
2017-Sep-21 02:30N 37°45' E 023°43'3 6.7
2017-Sep-21 02:00N 37°42' E 023°45'3 6.5
2017-Sep-21 01:31N 37°39' E 023°46'108 6.7
2017-Sep-20 09:22N 35°54' E 024°20'3 7.9
2017-Sep-20 09:01N 35°52' E 024°21'4 8.1
2017-Sep-20 08:31N 35°48' E 024°22'4 8.4
2017-Sep-20 08:01N 35°44' E 024°23'4 8.6
2017-Sep-20 07:31N 35°39' E 024°24'4 8.7
2017-Sep-20 07:01N 35°35' E 024°25'4 8.5
2017-Sep-20 06:30N 35°31' E 024°27'4 8.1
2017-Sep-20 06:01N 35°27' E 024°28'4 8.0
2017-Sep-20 05:30N 35°23' E 024°29'1 1.9
2017-Sep-20 04:59N 35°22' E 024°29'0 0.0
2017-Sep-20 04:29N 35°22' E 024°29'0 0.0
2017-Sep-20 03:59N 35°22' E 024°29'0 0.0
2017-Sep-20 03:29N 35°22' E 024°29'0 0.0
2017-Sep-20 02:59N 35°22' E 024°29'0 0.0
2017-Sep-20 02:29N 35°22' E 024°29'0 0.0
2017-Sep-20 01:59N 35°22' E 024°29'0 0.0
2017-Sep-20 01:29N 35°22' E 024°29'0 0.0
2017-Sep-20 00:59N 35°22' E 024°29'0 0.0
2017-Sep-20 00:29N 35°22' E 024°29'0 0.0
2017-Sep-19 23:59N 35°22' E 024°29'0 0.0
2017-Sep-19 23:29N 35°22' E 024°29'0 0.0
2017-Sep-19 22:59N 35°22' E 024°29'0 0.0
2017-Sep-19 22:29N 35°22' E 024°29'0 0.0
2017-Sep-19 21:59N 35°22' E 024°29'0 0.0
2017-Sep-19 21:29N 35°22' E 024°29'0 0.0
2017-Sep-19 20:56N 35°22' E 024°29'0 0.0
2017-Sep-19 20:29N 35°22' E 024°29'0 0.0
2017-Sep-19 19:59N 35°22' E 024°29'0 0.0
2017-Sep-19 19:29N 35°22' E 024°29'0 0.0
2017-Sep-19 18:59N 35°22' E 024°29'0 0.0
2017-Sep-19 18:29N 35°22' E 024°29'0 0.0
2017-Sep-19 17:59N 35°22' E 024°29'0 0.0
2017-Sep-19 17:29N 35°22' E 024°29'0 0.0
2017-Sep-19 16:59N 35°22' E 024°29'0 0.0
2017-Sep-19 16:29N 35°22' E 024°29'0 0.0
2017-Sep-19 15:59N 35°22' E 024°29'0 0.0
2017-Sep-19 15:29N 35°22' E 024°29'0 0.0
2017-Sep-19 14:59N 35°22' E 024°29'0 0.0
2017-Sep-19 14:29N 35°22' E 024°29'0 0.5
2017-Sep-19 13:59N 35°22' E 024°29'0 0.0
2017-Sep-19 13:29N 35°22' E 024°29'0 0.0
2017-Sep-19 12:59N 35°22' E 024°29'0 0.0
2017-Sep-19 12:29N 35°22' E 024°29'0 0.0
2017-Sep-19 11:59N 35°22' E 024°29'0 0.0
2017-Sep-19 11:23N 35°22' E 024°29'0 0.0
2017-Sep-19 10:59N 35°22' E 024°29'0 0.0
2017-Sep-19 10:26N 35°22' E 024°29'0 0.0
2017-Sep-19 09:59N 35°22' E 024°29'0 0.0
2017-Sep-19 09:29N 35°22' E 024°29'0 0.0
2017-Sep-19 08:56N 35°22' E 024°29'0 0.0
2017-Sep-19 08:29N 35°22' E 024°29'0 0.0
2017-Sep-19 07:59N 35°22' E 024°29'0 0.0
2017-Sep-19 07:29N 35°22' E 024°29'0 0.0
2017-Sep-19 06:59N 35°22' E 024°29'0 0.0
2017-Sep-19 06:29N 35°22' E 024°29'0 0.0
2017-Sep-19 05:59N 35°22' E 024°29'0 0.0
2017-Sep-19 05:29N 35°22' E 024°29'0 0.0
2017-Sep-19 04:59N 35°22' E 024°29'0 0.0
2017-Sep-19 04:29N 35°22' E 024°29'0 0.0
2017-Sep-19 03:59N 35°22' E 024°29'0 0.0
2017-Sep-19 03:29N 35°22' E 024°29'0 0.0
2017-Sep-19 02:59N 35°22' E 024°29'0 0.0
2017-Sep-19 02:29N 35°22' E 024°29'0 0.0
2017-Sep-19 01:59N 35°22' E 024°29'0 0.0
2017-Sep-19 01:29N 35°22' E 024°29'0 0.0
2017-Sep-19 00:56N 35°22' E 024°29'0 0.0
2017-Sep-19 00:29N 35°22' E 024°29'0 0.0
2017-Sep-18 23:59N 35°22' E 024°29'0 0.0
2017-Sep-18 23:29N 35°22' E 024°29'0 0.0
2017-Sep-18 22:59N 35°22' E 024°29'0 0.0
2017-Sep-18 22:29N 35°22' E 024°29'0 0.0
2017-Sep-18 21:59N 35°22' E 024°29'0 0.0
2017-Sep-18 21:29N 35°22' E 024°29'0 0.0
2017-Sep-18 20:59N 35°22' E 024°29'0 0.0
2017-Sep-18 20:29N 35°22' E 024°29'0 0.0
2017-Sep-18 19:59N 35°22' E 024°29'0 0.0
2017-Sep-18 19:29N 35°22' E 024°29'0 0.0
2017-Sep-18 18:59N 35°22' E 024°29'0 0.0
2017-Sep-18 18:29N 35°22' E 024°29'0 0.0
2017-Sep-18 17:59N 35°22' E 024°29'0 0.0
2017-Sep-18 17:29N 35°22' E 024°29'0 0.0
2017-Sep-18 16:59N 35°22' E 024°29'0 0.0
2017-Sep-18 16:29N 35°22' E 024°29'0 0.0
2017-Sep-18 15:59N 35°22' E 024°29'0 0.0
2017-Sep-18 15:29N 35°22' E 024°29'0 0.0
2017-Sep-18 14:59N 35°22' E 024°29'0 0.0
2017-Sep-18 14:29N 35°22' E 024°29'0 0.0
2017-Sep-18 13:59N 35°22' E 024°29'0 0.0
2017-Sep-18 13:29N 35°22' E 024°29'0 0.0
2017-Sep-18 12:59N 35°22' E 024°29'0 0.0
2017-Sep-18 12:29N 35°22' E 024°29'0 0.0
2017-Sep-18 11:59N 35°22' E 024°29'0 0.0
2017-Sep-18 11:29N 35°22' E 024°29'0 0.0
2017-Sep-18 10:59N 35°22' E 024°29'0 0.0
2017-Sep-18 10:29N 35°22' E 024°29'0 0.0
2017-Sep-18 09:59N 35°22' E 024°29'0 0.0
2017-Sep-18 09:29N 35°22' E 024°29'0 0.0
2017-Sep-18 08:59N 35°22' E 024°29'0 0.0
2017-Sep-18 08:29N 35°22' E 024°29'0 0.0
2017-Sep-18 08:01N 35°22' E 024°29'0 0.0
2017-Sep-18 07:31N 35°22' E 024°29'0 0.0
2017-Sep-18 07:01N 35°22' E 024°29'0 0.0
2017-Sep-18 06:31N 35°22' E 024°29'0 0.0
2017-Sep-18 06:01N 35°22' E 024°29'0 0.0
2017-Sep-18 05:31N 35°22' E 024°29'0 0.0
2017-Sep-18 05:01N 35°22' E 024°29'0 0.0
2017-Sep-18 04:30N 35°22' E 024°29'0 0.0
2017-Sep-18 04:01N 35°22' E 024°29'1 1.7
2017-Sep-18 03:31N 35°23' E 024°29'3 5.8
2017-Sep-18 03:01N 35°26' E 024°30'4 7.8
2017-Sep-18 02:28N 35°30' E 024°30'6 7.0
2017-Sep-18 01:38N 35°36' E 024°32'1 6.8
2017-Sep-18 01:30N 35°37' E 024°32'168 7.7
2017-Sep-17 03:43N 38°24' E 024°25'  
2017-Sep-13 05:22N 39°39' E 024°05'5 8.7
2017-Sep-13 04:48N 39°42' E 024°10'3 8.6
2017-Sep-13 04:30N 39°43' E 024°13'4 8.5
2017-Sep-13 04:00N 39°46' E 024°17'22 8.5
2017-Sep-13 01:28N 39°60' E 024°39'4 8.2
2017-Sep-13 01:00N 40°03' E 024°42'5 7.9
2017-Sep-13 00:24N 40°06' E 024°47'4 7.8
2017-Sep-12 23:52N 40°08' E 024°51'3 7.8
2017-Sep-12 23:28N 40°10' E 024°54'4 7.9
2017-Sep-12 23:00N 40°12' E 024°58'4 7.9
2017-Sep-12 22:30N 40°15' E 025°02'4 8.0
2017-Sep-12 22:00N 40°18' E 025°06'4 8.1
2017-Sep-12 21:30N 40°20' E 025°10'4 7.8
2017-Sep-12 21:00N 40°23' E 025°14'4 8.1
2017-Sep-12 20:30N 40°26' E 025°17'5 8.9
2017-Sep-12 20:00N 40°29' E 025°22'4 8.5
2017-Sep-12 19:30N 40°31' E 025°26'4 8.0
2017-Sep-12 19:00N 40°34' E 025°31'4 7.4
2017-Sep-12 18:30N 40°36' E 025°34'4 7.3
2017-Sep-12 18:00N 40°38' E 025°38'4 7.2
2017-Sep-12 17:30N 40°41' E 025°41'4 7.2
2017-Sep-12 17:00N 40°43' E 025°45'4 7.4
2017-Sep-12 16:30N 40°46' E 025°49'5 8.3
2017-Sep-12 15:54N 40°49' E 025°54'  

Dump ship's entire track history